sensor_id;sensor_type;location;lat;lon;timestamp;pressure;altitude;pressure_sealevel;temperature;humidity
54920;BME280;63804;53.120;8.764;2023-01-25T00:02:14;103901.25;;;3.79;42.34
54920;BME280;63804;53.120;8.764;2023-01-25T00:04:40;103903.44;;;3.88;42.21
54920;BME280;63804;53.120;8.764;2023-01-25T00:07:05;103901.53;;;3.70;42.58
54920;BME280;63804;53.120;8.764;2023-01-25T00:09:31;103897.88;;;3.83;42.27
54920;BME280;63804;53.120;8.764;2023-01-25T00:11:57;103894.25;;;3.96;42.00
54920;BME280;63804;53.120;8.764;2023-01-25T00:14:23;103891.34;;;3.98;41.79
54920;BME280;63804;53.120;8.764;2023-01-25T00:16:50;103886.03;;;3.84;42.16
54920;BME280;63804;53.120;8.764;2023-01-25T00:19:15;103883.16;;;3.79;42.29
54920;BME280;63804;53.120;8.764;2023-01-25T00:21:41;103889.81;;;3.77;42.36
54920;BME280;63804;53.120;8.764;2023-01-25T00:24:07;103886.84;;;3.85;42.25
54920;BME280;63804;53.120;8.764;2023-01-25T00:26:36;103885.28;;;4.02;41.95
54920;BME280;63804;53.120;8.764;2023-01-25T00:29:03;103889.94;;;3.88;42.13
54920;BME280;63804;53.120;8.764;2023-01-25T00:36:56;103877.22;;;3.70;42.46
54920;BME280;63804;53.120;8.764;2023-01-25T00:39:24;103880.03;;;3.82;42.45
54920;BME280;63804;53.120;8.764;2023-01-25T00:41:50;103879.00;;;3.77;42.53
54920;BME280;63804;53.120;8.764;2023-01-25T00:44:16;103875.44;;;3.83;42.29
54920;BME280;63804;53.120;8.764;2023-01-25T00:46:42;103867.50;;;3.88;42.28
54920;BME280;63804;53.120;8.764;2023-01-25T00:49:28;103872.03;;;3.94;41.86
54920;BME280;63804;53.120;8.764;2023-01-25T00:51:56;103864.97;;;3.93;42.24
54920;BME280;63804;53.120;8.764;2023-01-25T00:54:22;103866.63;;;3.94;42.18
54920;BME280;63804;53.120;8.764;2023-01-25T00:56:49;103864.47;;;3.78;42.31
54920;BME280;63804;53.120;8.764;2023-01-25T00:59:17;103860.16;;;3.70;42.48
54920;BME280;63804;53.120;8.764;2023-01-25T01:01:43;103854.16;;;3.68;42.64
54920;BME280;63804;53.120;8.764;2023-01-25T01:04:09;103858.03;;;3.79;42.46
54920;BME280;63804;53.120;8.764;2023-01-25T01:06:38;103856.97;;;3.80;42.32
54920;BME280;63804;53.120;8.764;2023-01-25T01:09:06;103855.38;;;3.72;42.31
54920;BME280;63804;53.120;8.764;2023-01-25T01:11:33;103856.91;;;3.61;42.59
54920;BME280;63804;53.120;8.764;2023-01-25T01:13:59;103849.19;;;3.65;42.48
54920;BME280;63804;53.120;8.764;2023-01-25T01:16:25;103851.00;;;3.71;42.40
54920;BME280;63804;53.120;8.764;2023-01-25T01:18:51;103850.91;;;3.84;42.37
54920;BME280;63804;53.120;8.764;2023-01-25T01:21:17;103847.81;;;3.81;42.41
54920;BME280;63804;53.120;8.764;2023-01-25T01:23:43;103841.06;;;3.90;42.25
54920;BME280;63804;53.120;8.764;2023-01-25T01:26:11;103843.13;;;3.95;42.23
54920;BME280;63804;53.120;8.764;2023-01-25T01:28:38;103843.78;;;3.90;42.52
54920;BME280;63804;53.120;8.764;2023-01-25T01:31:18;103843.28;;;3.75;42.70
54920;BME280;63804;53.120;8.764;2023-01-25T01:33:44;103834.75;;;3.78;42.45
54920;BME280;63804;53.120;8.764;2023-01-25T01:36:17;103844.41;;;3.92;42.42
54920;BME280;63804;53.120;8.764;2023-01-25T01:38:43;103841.34;;;3.82;42.41
54920;BME280;63804;53.120;8.764;2023-01-25T01:41:10;103839.44;;;3.89;42.27
54920;BME280;63804;53.120;8.764;2023-01-25T01:43:36;103839.13;;;3.79;42.50
54920;BME280;63804;53.120;8.764;2023-01-25T01:46:05;103840.19;;;3.46;43.21
54920;BME280;63804;53.120;8.764;2023-01-25T01:51:29;103836.31;;;3.60;43.01
54920;BME280;63804;53.120;8.764;2023-01-25T01:54:08;103836.38;;;3.53;43.08
54920;BME280;63804;53.120;8.764;2023-01-25T01:57:10;103827.69;;;3.77;42.62
54920;BME280;63804;53.120;8.764;2023-01-25T01:59:47;103818.69;;;3.83;42.42
54920;BME280;63804;53.120;8.764;2023-01-25T02:02:15;103820.06;;;3.67;42.78
54920;BME280;63804;53.120;8.764;2023-01-25T02:04:43;103807.78;;;3.46;42.91
54920;BME280;63804;53.120;8.764;2023-01-25T02:07:17;103807.34;;;3.49;43.01
54920;BME280;63804;53.120;8.764;2023-01-25T02:09:45;103802.38;;;3.46;43.27
54920;BME280;63804;53.120;8.764;2023-01-25T02:12:12;103811.69;;;3.50;43.10
54920;BME280;63804;53.120;8.764;2023-01-25T02:14:47;103786.59;;;3.68;42.79
54920;BME280;63804;53.120;8.764;2023-01-25T02:17:13;103784.13;;;3.66;42.85
54920;BME280;63804;53.120;8.764;2023-01-25T02:22:31;103777.09;;;3.65;42.95
54920;BME280;63804;53.120;8.764;2023-01-25T02:25:11;103776.03;;;3.66;42.94
54920;BME280;63804;53.120;8.764;2023-01-25T02:27:41;103781.00;;;3.69;42.95
54920;BME280;63804;53.120;8.764;2023-01-25T02:30:10;103785.13;;;3.72;42.99
54920;BME280;63804;53.120;8.764;2023-01-25T02:32:37;103782.09;;;3.62;43.01
54920;BME280;63804;53.120;8.764;2023-01-25T02:35:04;103779.59;;;3.60;43.13
54920;BME280;63804;53.120;8.764;2023-01-25T02:37:30;103774.56;;;3.70;42.89
54920;BME280;63804;53.120;8.764;2023-01-25T02:39:55;103776.84;;;3.67;42.91
54920;BME280;63804;53.120;8.764;2023-01-25T02:42:21;103777.41;;;3.50;43.36
54920;BME280;63804;53.120;8.764;2023-01-25T02:44:48;103776.47;;;3.63;43.07
54920;BME280;63804;53.120;8.764;2023-01-25T02:47:15;103773.91;;;3.68;42.85
54920;BME280;63804;53.120;8.764;2023-01-25T02:49:41;103768.56;;;3.62;42.90
54920;BME280;63804;53.120;8.764;2023-01-25T02:52:07;103772.13;;;3.62;43.18
54920;BME280;63804;53.120;8.764;2023-01-25T02:54:32;103770.25;;;3.63;42.88
54920;BME280;63804;53.120;8.764;2023-01-25T02:56:58;103775.69;;;3.56;43.32
54920;BME280;63804;53.120;8.764;2023-01-25T02:59:24;103767.56;;;3.31;43.67
54920;BME280;63804;53.120;8.764;2023-01-25T03:01:50;103767.31;;;3.64;43.05
54920;BME280;63804;53.120;8.764;2023-01-25T03:04:16;103766.50;;;3.64;42.86
54920;BME280;63804;53.120;8.764;2023-01-25T03:06:41;103757.72;;;3.68;43.08
54920;BME280;63804;53.120;8.764;2023-01-25T03:09:09;103765.22;;;3.66;42.67
54920;BME280;63804;53.120;8.764;2023-01-25T03:11:35;103752.72;;;3.40;43.49
54920;BME280;63804;53.120;8.764;2023-01-25T03:14:01;103753.34;;;3.42;43.62
54920;BME280;63804;53.120;8.764;2023-01-25T03:16:27;103747.94;;;3.42;43.51
54920;BME280;63804;53.120;8.764;2023-01-25T03:18:55;103743.03;;;3.32;43.46
54920;BME280;63804;53.120;8.764;2023-01-25T03:21:21;103737.63;;;3.32;43.64
54920;BME280;63804;53.120;8.764;2023-01-25T03:23:52;103739.78;;;3.56;43.04
54920;BME280;63804;53.120;8.764;2023-01-25T03:26:20;103744.31;;;3.55;43.17
54920;BME280;63804;53.120;8.764;2023-01-25T03:28:46;103746.16;;;3.61;42.88
54920;BME280;63804;53.120;8.764;2023-01-25T03:31:14;103745.38;;;3.54;42.94
54920;BME280;63804;53.120;8.764;2023-01-25T03:33:40;103737.94;;;3.49;42.92
54920;BME280;63804;53.120;8.764;2023-01-25T03:36:07;103733.09;;;3.26;43.54
54920;BME280;63804;53.120;8.764;2023-01-25T03:38:34;103734.25;;;3.44;43.21
54920;BME280;63804;53.120;8.764;2023-01-25T03:41:00;103730.88;;;3.48;43.15
54920;BME280;63804;53.120;8.764;2023-01-25T03:43:26;103738.16;;;3.48;42.98
54920;BME280;63804;53.120;8.764;2023-01-25T03:45:54;103734.00;;;3.52;43.06
54920;BME280;63804;53.120;8.764;2023-01-25T03:48:21;103732.91;;;3.53;43.07
54920;BME280;63804;53.120;8.764;2023-01-25T03:50:51;103731.72;;;3.49;43.15
54920;BME280;63804;53.120;8.764;2023-01-25T03:53:26;103721.31;;;3.52;43.05
54920;BME280;63804;53.120;8.764;2023-01-25T03:55:55;103717.16;;;3.50;43.05
54920;BME280;63804;53.120;8.764;2023-01-25T03:58:22;103703.91;;;3.42;43.15
54920;BME280;63804;53.120;8.764;2023-01-25T04:00:47;103714.16;;;3.33;43.51
54920;BME280;63804;53.120;8.764;2023-01-25T04:03:14;103703.53;;;3.38;43.35
54920;BME280;63804;53.120;8.764;2023-01-25T04:05:41;103703.38;;;3.58;43.29
54920;BME280;63804;53.120;8.764;2023-01-25T04:08:06;103710.75;;;3.69;43.08
54920;BME280;63804;53.120;8.764;2023-01-25T04:10:32;103704.16;;;3.65;43.01
54920;BME280;63804;53.120;8.764;2023-01-25T04:12:58;103710.44;;;3.59;43.06
54920;BME280;63804;53.120;8.764;2023-01-25T04:15:24;103699.25;;;3.56;43.17
54920;BME280;63804;53.120;8.764;2023-01-25T04:17:49;103705.19;;;3.39;43.48
54920;BME280;63804;53.120;8.764;2023-01-25T04:20:15;103702.19;;;3.54;43.13
54920;BME280;63804;53.120;8.764;2023-01-25T04:22:41;103699.63;;;3.59;43.29
54920;BME280;63804;53.120;8.764;2023-01-25T04:25:07;103702.19;;;3.54;43.27
54920;BME280;63804;53.120;8.764;2023-01-25T04:27:33;103697.50;;;3.43;43.18
54920;BME280;63804;53.120;8.764;2023-01-25T04:29:59;103701.84;;;3.44;43.12
54920;BME280;63804;53.120;8.764;2023-01-25T04:32:25;103699.75;;;3.46;43.41
54920;BME280;63804;53.120;8.764;2023-01-25T04:34:50;103694.00;;;3.35;43.45
54920;BME280;63804;53.120;8.764;2023-01-25T04:37:16;103692.50;;;3.40;43.33
54920;BME280;63804;53.120;8.764;2023-01-25T04:39:42;103689.81;;;3.40;43.52
54920;BME280;63804;53.120;8.764;2023-01-25T04:42:08;103701.16;;;3.23;43.61
54920;BME280;63804;53.120;8.764;2023-01-25T04:44:33;103698.56;;;3.10;44.04
54920;BME280;63804;53.120;8.764;2023-01-25T04:46:59;103699.94;;;3.19;43.61
54920;BME280;63804;53.120;8.764;2023-01-25T04:49:25;103697.56;;;3.29;43.50
54920;BME280;63804;53.120;8.764;2023-01-25T04:51:51;103696.69;;;3.35;43.28
54920;BME280;63804;53.120;8.764;2023-01-25T04:54:16;103688.59;;;3.35;43.24
54920;BME280;63804;53.120;8.764;2023-01-25T04:56:42;103689.41;;;3.43;43.13
54920;BME280;63804;53.120;8.764;2023-01-25T04:59:09;103686.63;;;3.24;43.17
54920;BME280;63804;53.120;8.764;2023-01-25T05:01:35;103684.44;;;3.08;43.58
54920;BME280;63804;53.120;8.764;2023-01-25T05:04:01;103685.22;;;3.15;43.59
54920;BME280;63804;53.120;8.764;2023-01-25T05:06:27;103679.13;;;3.26;43.35
54920;BME280;63804;53.120;8.764;2023-01-25T05:08:52;103672.19;;;3.37;42.89
54920;BME280;63804;53.120;8.764;2023-01-25T05:11:18;103676.06;;;3.41;42.92
54920;BME280;63804;53.120;8.764;2023-01-25T05:13:44;103667.97;;;3.41;42.88
54920;BME280;63804;53.120;8.764;2023-01-25T05:16:10;103673.72;;;3.26;43.12
54920;BME280;63804;53.120;8.764;2023-01-25T05:18:35;103669.72;;;3.10;43.47
54920;BME280;63804;53.120;8.764;2023-01-25T05:21:01;103670.31;;;3.12;43.34
54920;BME280;63804;53.120;8.764;2023-01-25T05:23:27;103667.88;;;3.29;43.00
54920;BME280;63804;53.120;8.764;2023-01-25T05:25:53;103669.72;;;3.10;43.24
54920;BME280;63804;53.120;8.764;2023-01-25T05:28:37;103670.97;;;3.08;43.52
54920;BME280;63804;53.120;8.764;2023-01-25T05:31:04;103664.09;;;3.12;43.30
54920;BME280;63804;53.120;8.764;2023-01-25T05:33:36;103664.47;;;3.15;43.14
54920;BME280;63804;53.120;8.764;2023-01-25T05:36:02;103663.13;;;3.00;43.52
54920;BME280;63804;53.120;8.764;2023-01-25T05:38:28;103668.81;;;3.16;43.37
54920;BME280;63804;53.120;8.764;2023-01-25T05:40:57;103665.88;;;3.18;43.12
54920;BME280;63804;53.120;8.764;2023-01-25T05:43:23;103663.97;;;3.25;43.20
54920;BME280;63804;53.120;8.764;2023-01-25T05:45:51;103664.41;;;3.22;42.95
54920;BME280;63804;53.120;8.764;2023-01-25T05:48:17;103663.47;;;3.10;43.20
54920;BME280;63804;53.120;8.764;2023-01-25T05:50:43;103663.13;;;3.00;43.37
54920;BME280;63804;53.120;8.764;2023-01-25T05:53:08;103666.91;;;2.98;43.36
54920;BME280;63804;53.120;8.764;2023-01-25T05:55:35;103666.69;;;2.93;43.49
54920;BME280;63804;53.120;8.764;2023-01-25T05:58:01;103666.44;;;3.02;43.50
54920;BME280;63804;53.120;8.764;2023-01-25T06:00:27;103667.34;;;2.95;43.54
54920;BME280;63804;53.120;8.764;2023-01-25T06:02:52;103663.91;;;3.07;43.37
54920;BME280;63804;53.120;8.764;2023-01-25T06:05:20;103660.38;;;3.06;43.28
54920;BME280;63804;53.120;8.764;2023-01-25T06:07:46;103661.41;;;3.12;43.02
54920;BME280;63804;53.120;8.764;2023-01-25T06:10:11;103652.22;;;3.13;43.10
54920;BME280;63804;53.120;8.764;2023-01-25T06:12:37;103647.38;;;3.22;43.08
54920;BME280;63804;53.120;8.764;2023-01-25T06:15:05;103647.09;;;3.30;42.82
54920;BME280;63804;53.120;8.764;2023-01-25T06:17:31;103643.22;;;3.01;43.33
54920;BME280;63804;53.120;8.764;2023-01-25T06:19:56;103641.75;;;2.98;43.69
54920;BME280;63804;53.120;8.764;2023-01-25T06:22:22;103637.69;;;2.89;43.84
54920;BME280;63804;53.120;8.764;2023-01-25T06:24:48;103641.97;;;2.96;43.73
54920;BME280;63804;53.120;8.764;2023-01-25T06:27:14;103639.34;;;3.15;43.71
54920;BME280;63804;53.120;8.764;2023-01-25T06:29:39;103641.44;;;3.13;43.44
54920;BME280;63804;53.120;8.764;2023-01-25T06:32:05;103634.63;;;3.10;43.30
54920;BME280;63804;53.120;8.764;2023-01-25T06:34:31;103635.28;;;3.06;43.61
54920;BME280;63804;53.120;8.764;2023-01-25T06:36:56;103635.88;;;3.08;43.53
54920;BME280;63804;53.120;8.764;2023-01-25T06:39:22;103631.81;;;2.98;43.77
54920;BME280;63804;53.120;8.764;2023-01-25T06:41:48;103639.97;;;2.92;43.94
54920;BME280;63804;53.120;8.764;2023-01-25T06:44:14;103648.16;;;3.04;43.49
54920;BME280;63804;53.120;8.764;2023-01-25T06:46:39;103645.06;;;3.00;43.59
54920;BME280;63804;53.120;8.764;2023-01-25T06:49:05;103656.28;;;3.04;43.49
54920;BME280;63804;53.120;8.764;2023-01-25T06:51:31;103659.03;;;3.22;43.28
54920;BME280;63804;53.120;8.764;2023-01-25T06:54:01;103659.19;;;3.02;43.55
54920;BME280;63804;53.120;8.764;2023-01-25T06:56:28;103662.44;;;3.11;43.62
54920;BME280;63804;53.120;8.764;2023-01-25T06:58:54;103656.50;;;3.02;43.43
54920;BME280;63804;53.120;8.764;2023-01-25T07:01:21;103651.91;;;3.03;43.38
54920;BME280;63804;53.120;8.764;2023-01-25T07:03:56;103644.25;;;3.00;43.69
54920;BME280;63804;53.120;8.764;2023-01-25T07:06:23;103643.44;;;2.99;43.75
54920;BME280;63804;53.120;8.764;2023-01-25T07:08:49;103643.09;;;3.14;43.32
54920;BME280;63804;53.120;8.764;2023-01-25T07:11:16;103637.22;;;3.24;43.19
54920;BME280;63804;53.120;8.764;2023-01-25T07:13:44;103618.38;;;3.17;43.34
54920;BME280;63804;53.120;8.764;2023-01-25T07:16:13;103620.34;;;3.03;43.55
54920;BME280;63804;53.120;8.764;2023-01-25T07:18:39;103612.34;;;2.90;43.75
54920;BME280;63804;53.120;8.764;2023-01-25T07:21:16;103614.56;;;3.00;43.54
54920;BME280;63804;53.120;8.764;2023-01-25T07:23:42;103616.66;;;2.97;43.43
54920;BME280;63804;53.120;8.764;2023-01-25T07:26:17;103623.63;;;2.80;43.81
54920;BME280;63804;53.120;8.764;2023-01-25T07:28:44;103619.25;;;2.86;43.81
54920;BME280;63804;53.120;8.764;2023-01-25T07:31:10;103618.22;;;2.80;43.73
54920;BME280;63804;53.120;8.764;2023-01-25T07:33:36;103612.13;;;2.91;43.48
54920;BME280;63804;53.120;8.764;2023-01-25T07:36:04;103614.56;;;3.00;43.30
54920;BME280;63804;53.120;8.764;2023-01-25T07:38:30;103613.09;;;3.04;43.13
54920;BME280;63804;53.120;8.764;2023-01-25T07:40:56;103611.00;;;3.06;43.17
54920;BME280;63804;53.120;8.764;2023-01-25T07:43:22;103609.66;;;2.90;43.20
54920;BME280;63804;53.120;8.764;2023-01-25T07:45:48;103609.72;;;2.83;43.68
54920;BME280;63804;53.120;8.764;2023-01-25T07:48:18;103613.84;;;2.86;43.55
54920;BME280;63804;53.120;8.764;2023-01-25T07:50:44;103611.16;;;2.86;43.67
54920;BME280;63804;53.120;8.764;2023-01-25T07:53:12;103608.84;;;2.89;43.42
54920;BME280;63804;53.120;8.764;2023-01-25T07:55:38;103603.88;;;2.86;43.42
54920;BME280;63804;53.120;8.764;2023-01-25T07:58:04;103604.88;;;2.92;43.42
54920;BME280;63804;53.120;8.764;2023-01-25T08:00:30;103604.38;;;3.02;43.14
54920;BME280;63804;53.120;8.764;2023-01-25T08:02:55;103603.88;;;2.86;43.26
54920;BME280;63804;53.120;8.764;2023-01-25T08:05:21;103593.84;;;2.93;43.29
54920;BME280;63804;53.120;8.764;2023-01-25T08:07:47;103584.66;;;3.01;43.06
54920;BME280;63804;53.120;8.764;2023-01-25T08:10:14;103585.25;;;3.03;43.14
54920;BME280;63804;53.120;8.764;2023-01-25T08:12:43;103595.50;;;2.94;43.24
54920;BME280;63804;53.120;8.764;2023-01-25T08:15:11;103600.16;;;2.87;43.21
54920;BME280;63804;53.120;8.764;2023-01-25T08:17:38;103591.44;;;2.85;43.45
54920;BME280;63804;53.120;8.764;2023-01-25T08:20:04;103594.81;;;2.81;43.54
54920;BME280;63804;53.120;8.764;2023-01-25T08:22:30;103591.88;;;2.82;43.47
54920;BME280;63804;53.120;8.764;2023-01-25T08:25:03;103589.19;;;2.82;43.47
54920;BME280;63804;53.120;8.764;2023-01-25T08:27:29;103593.13;;;2.79;43.59
54920;BME280;63804;53.120;8.764;2023-01-25T08:29:55;103591.00;;;2.88;43.33
54920;BME280;63804;53.120;8.764;2023-01-25T08:32:20;103592.66;;;2.89;43.53
54920;BME280;63804;53.120;8.764;2023-01-25T08:34:46;103584.28;;;2.97;43.29
54920;BME280;63804;53.120;8.764;2023-01-25T08:37:12;103571.81;;;2.96;43.36
54920;BME280;63804;53.120;8.764;2023-01-25T08:39:38;103558.91;;;3.05;43.25
54920;BME280;63804;53.120;8.764;2023-01-25T08:42:04;103566.94;;;3.12;42.87
54920;BME280;63804;53.120;8.764;2023-01-25T08:44:31;103567.66;;;3.01;43.27
54920;BME280;63804;53.120;8.764;2023-01-25T08:47:06;103563.13;;;2.94;43.15
54920;BME280;63804;53.120;8.764;2023-01-25T08:49:32;103552.72;;;2.98;43.28
54920;BME280;63804;53.120;8.764;2023-01-25T08:51:59;103553.88;;;3.09;42.92
54920;BME280;63804;53.120;8.764;2023-01-25T08:54:24;103545.63;;;3.04;43.04
54920;BME280;63804;53.120;8.764;2023-01-25T08:56:50;103545.84;;;3.02;43.30
54920;BME280;63804;53.120;8.764;2023-01-25T08:59:16;103538.69;;;2.89;43.17
54920;BME280;63804;53.120;8.764;2023-01-25T09:01:42;103544.56;;;3.05;43.41
54920;BME280;63804;53.120;8.764;2023-01-25T09:04:08;103542.63;;;3.12;43.00
54920;BME280;63804;53.120;8.764;2023-01-25T09:06:33;103539.38;;;3.03;42.91
54920;BME280;63804;53.120;8.764;2023-01-25T09:08:59;103530.69;;;3.01;43.23
54920;BME280;63804;53.120;8.764;2023-01-25T09:11:25;103527.03;;;3.14;43.27
54920;BME280;63804;53.120;8.764;2023-01-25T09:13:51;103532.44;;;3.14;43.15
54920;BME280;63804;53.120;8.764;2023-01-25T09:16:20;103530.19;;;3.11;43.33
54920;BME280;63804;53.120;8.764;2023-01-25T09:18:53;103527.34;;;3.06;43.41
54920;BME280;63804;53.120;8.764;2023-01-25T09:21:19;103531.22;;;3.10;43.33
54920;BME280;63804;53.120;8.764;2023-01-25T09:23:48;103524.34;;;3.14;43.18
54920;BME280;63804;53.120;8.764;2023-01-25T09:26:21;103518.16;;;3.07;42.98
54920;BME280;63804;53.120;8.764;2023-01-25T09:28:54;103519.97;;;3.13;43.25
54920;BME280;63804;53.120;8.764;2023-01-25T09:31:20;103515.66;;;3.12;42.98
54920;BME280;63804;53.120;8.764;2023-01-25T09:33:46;103517.13;;;3.08;43.18
54920;BME280;63804;53.120;8.764;2023-01-25T09:36:12;103513.19;;;3.10;43.12
54920;BME280;63804;53.120;8.764;2023-01-25T09:38:38;103498.91;;;3.03;43.37
54920;BME280;63804;53.120;8.764;2023-01-25T09:41:11;103492.84;;;3.08;43.44
54920;BME280;63804;53.120;8.764;2023-01-25T09:54:21;103505.44;;;3.14;43.06
54920;BME280;63804;53.120;8.764;2023-01-25T09:56:49;103502.31;;;3.17;42.98
54920;BME280;63804;53.120;8.764;2023-01-25T09:59:18;103496.91;;;3.17;43.28
54920;BME280;63804;53.120;8.764;2023-01-25T10:01:48;103487.28;;;3.21;42.88
54920;BME280;63804;53.120;8.764;2023-01-25T10:04:33;103489.69;;;3.11;43.15
54920;BME280;63804;53.120;8.764;2023-01-25T10:07:13;103489.19;;;3.21;43.06
54920;BME280;63804;53.120;8.764;2023-01-25T10:10:03;103487.59;;;2.94;43.54
54920;BME280;63804;53.120;8.764;2023-01-25T10:12:35;103489.63;;;2.99;43.30
54920;BME280;63804;53.120;8.764;2023-01-25T10:17:44;103479.88;;;3.16;43.23
54920;BME280;63804;53.120;8.764;2023-01-25T10:25:59;103469.06;;;3.16;43.34
54920;BME280;63804;53.120;8.764;2023-01-25T10:28:49;103463.53;;;3.11;43.27
54920;BME280;63804;53.120;8.764;2023-01-25T10:31:21;103454.91;;;3.21;43.54
54920;BME280;63804;53.120;8.764;2023-01-25T10:33:51;103457.38;;;3.23;43.24
54920;BME280;63804;53.120;8.764;2023-01-25T10:36:21;103457.47;;;3.16;43.42
54920;BME280;63804;53.120;8.764;2023-01-25T10:38:48;103437.97;;;3.14;43.40
54920;BME280;63804;53.120;8.764;2023-01-25T10:41:35;103440.09;;;3.12;43.45
54920;BME280;63804;53.120;8.764;2023-01-25T10:44:03;103430.94;;;2.94;43.79
54920;BME280;63804;53.120;8.764;2023-01-25T10:49:42;103442.00;;;3.05;43.91
54920;BME280;63804;53.120;8.764;2023-01-25T10:52:18;103431.66;;;3.20;43.47
54920;BME280;63804;53.120;8.764;2023-01-25T10:54:46;103429.44;;;3.17;43.49
54920;BME280;63804;53.120;8.764;2023-01-25T10:57:17;103417.06;;;2.91;44.28
54920;BME280;63804;53.120;8.764;2023-01-25T10:59:46;103420.34;;;2.93;44.12
54920;BME280;63804;53.120;8.764;2023-01-25T11:05:24;103401.25;;;2.94;44.16
54920;BME280;63804;53.120;8.764;2023-01-25T11:07:50;103393.66;;;3.03;43.65
54920;BME280;63804;53.120;8.764;2023-01-25T11:13:16;103379.94;;;3.05;44.01
54920;BME280;63804;53.120;8.764;2023-01-25T11:15:46;103383.16;;;2.95;43.91
54920;BME280;63804;53.120;8.764;2023-01-25T11:18:17;103381.41;;;2.89;44.24
54920;BME280;63804;53.120;8.764;2023-01-25T11:20:43;103377.84;;;3.07;44.07
54920;BME280;63804;53.120;8.764;2023-01-25T11:23:24;103380.63;;;3.19;43.85
54920;BME280;63804;53.120;8.764;2023-01-25T11:25:51;103364.50;;;2.93;44.45
54920;BME280;63804;53.120;8.764;2023-01-25T11:28:22;103371.56;;;2.94;44.49
54920;BME280;63804;53.120;8.764;2023-01-25T11:30:52;103357.47;;;2.92;44.32
54920;BME280;63804;53.120;8.764;2023-01-25T11:33:24;103348.19;;;2.88;44.39
54920;BME280;63804;53.120;8.764;2023-01-25T11:38:22;103332.00;;;2.70;45.02
54920;BME280;63804;53.120;8.764;2023-01-25T11:40:56;103327.06;;;2.85;44.62
54920;BME280;63804;53.120;8.764;2023-01-25T11:54:21;103299.34;;;2.78;44.74
54920;BME280;63804;53.120;8.764;2023-01-25T12:05:06;103268.72;;;3.03;44.34
54920;BME280;63804;53.120;8.764;2023-01-25T12:07:40;103260.31;;;3.11;44.33
54920;BME280;63804;53.120;8.764;2023-01-25T12:10:17;103246.69;;;3.06;44.30
54920;BME280;63804;53.120;8.764;2023-01-25T12:12:55;103257.34;;;3.01;44.48
54920;BME280;63804;53.120;8.764;2023-01-25T12:15:43;103242.56;;;3.03;44.39
54920;BME280;63804;53.120;8.764;2023-01-25T12:18:58;103228.94;;;2.98;44.47
54920;BME280;63804;53.120;8.764;2023-01-25T12:25:25;103230.91;;;2.91;44.67
54920;BME280;63804;53.120;8.764;2023-01-25T12:27:38;103221.88;;;2.85;44.81
54920;BME280;63804;53.120;8.764;2023-01-25T12:32:53;103204.31;;;3.06;44.36
54920;BME280;63804;53.120;8.764;2023-01-25T12:35:45;103201.34;;;2.84;44.61
54920;BME280;63804;53.120;8.764;2023-01-25T12:38:18;103189.91;;;2.70;44.83
54920;BME280;63804;53.120;8.764;2023-01-25T12:40:52;103195.00;;;2.60;45.05
54920;BME280;63804;53.120;8.764;2023-01-25T12:43:26;103186.91;;;2.78;44.80
54920;BME280;63804;53.120;8.764;2023-01-25T12:45:53;103184.53;;;2.70;44.90
54920;BME280;63804;53.120;8.764;2023-01-25T12:48:32;103177.97;;;2.78;44.59
54920;BME280;63804;53.120;8.764;2023-01-25T12:51:01;103181.41;;;2.85;44.57
54920;BME280;63804;53.120;8.764;2023-01-25T12:53:35;103175.06;;;2.91;44.41
54920;BME280;63804;53.120;8.764;2023-01-25T12:56:05;103165.50;;;2.65;44.51
54920;BME280;63804;53.120;8.764;2023-01-25T12:58:42;103153.47;;;2.79;44.43
54920;BME280;63804;53.120;8.764;2023-01-25T13:01:25;103155.94;;;2.81;44.17
54920;BME280;63804;53.120;8.764;2023-01-25T13:04:38;103147.00;;;2.69;44.57
54920;BME280;63804;53.120;8.764;2023-01-25T13:07:16;103156.06;;;2.86;44.36
54920;BME280;63804;53.120;8.764;2023-01-25T13:10:14;103154.06;;;2.93;44.06
54920;BME280;63804;53.120;8.764;2023-01-25T13:12:53;103135.88;;;2.77;44.35
54920;BME280;63804;53.120;8.764;2023-01-25T13:15:38;103134.03;;;2.89;44.17
54920;BME280;63804;53.120;8.764;2023-01-25T13:20:50;103122.38;;;2.65;44.70
54920;BME280;63804;53.120;8.764;2023-01-25T13:23:28;103119.41;;;2.67;44.80
54920;BME280;63804;53.120;8.764;2023-01-25T13:26:38;103126.00;;;2.71;44.54
54920;BME280;63804;53.120;8.764;2023-01-25T13:32:10;103118.69;;;2.59;44.49
54920;BME280;63804;53.120;8.764;2023-01-25T13:37:26;103102.78;;;2.70;44.25
54920;BME280;63804;53.120;8.764;2023-01-25T13:43:19;103103.03;;;2.80;44.08
54920;BME280;63804;53.120;8.764;2023-01-25T13:45:49;103096.94;;;2.85;43.73
54920;BME280;63804;53.120;8.764;2023-01-25T13:48:19;103092.50;;;2.90;43.51
54920;BME280;63804;53.120;8.764;2023-01-25T13:50:50;103089.91;;;2.72;43.72
54920;BME280;63804;53.120;8.764;2023-01-25T13:53:23;103088.44;;;2.57;43.73
54920;BME280;63804;53.120;8.764;2023-01-25T13:55:53;103080.25;;;2.52;44.13
54920;BME280;63804;53.120;8.764;2023-01-25T13:58:44;103079.66;;;2.50;43.94
54920;BME280;63804;53.120;8.764;2023-01-25T14:01:16;103074.38;;;2.55;43.84
54920;BME280;63804;53.120;8.764;2023-01-25T14:06:20;103080.09;;;2.47;43.75
54920;BME280;63804;53.120;8.764;2023-01-25T14:08:47;103075.75;;;2.46;43.76
54920;BME280;63804;53.120;8.764;2023-01-25T14:11:23;103067.13;;;2.68;43.23
54920;BME280;63804;53.120;8.764;2023-01-25T14:13:57;103070.38;;;2.46;43.55
54920;BME280;63804;53.120;8.764;2023-01-25T14:16:23;103074.50;;;2.49;43.45
54920;BME280;63804;53.120;8.764;2023-01-25T14:18:49;103072.38;;;2.51;43.52
54920;BME280;63804;53.120;8.764;2023-01-25T14:21:17;103069.00;;;2.55;43.69
54920;BME280;63804;53.120;8.764;2023-01-25T14:23:44;103061.94;;;2.54;43.59
54920;BME280;63804;53.120;8.764;2023-01-25T14:26:18;103064.25;;;2.39;43.91
54920;BME280;63804;53.120;8.764;2023-01-25T14:28:57;103057.41;;;2.24;43.98
54920;BME280;63804;53.120;8.764;2023-01-25T14:31:35;103055.69;;;2.30;43.95
54920;BME280;63804;53.120;8.764;2023-01-25T14:34:02;103060.69;;;2.27;44.16